createdAt,value
2019-05-11T00:01:28.967Z,42
2019-05-11T00:11:28.150Z,42
2019-05-11T00:21:27.935Z,41
2019-05-11T00:31:27.654Z,43
2019-05-11T00:41:28.516Z,43
2019-05-11T00:51:28.584Z,42
2019-05-11T01:01:28.651Z,42
2019-05-11T01:11:29.825Z,41
2019-05-11T01:21:27.837Z,43
2019-05-11T01:31:27.960Z,42
2019-05-11T01:41:27.495Z,42
2019-05-11T01:51:28.640Z,44
2019-05-11T02:01:28.095Z,42
2019-05-11T02:11:27.710Z,43
2019-05-11T02:21:28.796Z,43
2019-05-11T02:31:28.842Z,43
2019-05-11T02:41:39.178Z,41
2019-05-11T02:51:28.471Z,42
2019-05-11T03:01:28.150Z,42
2019-05-11T03:11:27.921Z,43
2019-05-11T03:21:27.584Z,43
2019-05-11T03:31:28.210Z,43
2019-05-11T03:41:27.987Z,43
2019-05-11T03:51:31.542Z,41
2019-05-11T04:01:28.407Z,43
2019-05-11T04:11:28.067Z,42
2019-05-11T04:21:28.222Z,43
2019-05-11T04:31:27.972Z,43
2019-05-11T04:41:28.411Z,42
2019-05-11T04:51:28.566Z,42
2019-05-11T05:01:27.182Z,42
2019-05-11T05:11:38.470Z,43
2019-05-11T05:21:28.947Z,42
2019-05-11T05:31:27.422Z,42
2019-05-11T05:41:29.035Z,41
2019-05-11T05:51:28.483Z,41
2019-05-11T06:01:30.193Z,41
2019-05-11T06:11:27.857Z,41
2019-05-11T06:21:28.247Z,41
2019-05-11T06:31:28.108Z,43
2019-05-11T06:41:27.413Z,41
2019-05-11T06:51:28.518Z,43
2019-05-11T07:01:29.225Z,41
2019-05-11T07:11:28.228Z,41
2019-05-11T07:21:29.159Z,40
2019-05-11T07:31:28.024Z,42
2019-05-11T07:41:30.276Z,40
2019-05-11T07:51:30.745Z,41
2019-05-11T08:01:30.086Z,42
2019-05-11T08:11:32.804Z,41
2019-05-11T08:21:30.299Z,40
2019-05-11T08:31:29.817Z,40
2019-05-11T08:41:29.949Z,40
2019-05-11T08:51:29.810Z,39
2019-05-11T09:01:31.953Z,41
2019-05-11T09:11:30.420Z,40
2019-05-11T09:21:29.868Z,41
2019-05-11T09:31:29.901Z,41
2019-05-11T09:41:30.502Z,40
2019-05-11T09:51:30.562Z,39
2019-05-11T10:01:31.498Z,39
2019-05-11T10:11:29.424Z,38
2019-05-11T10:21:31.955Z,38
2019-05-11T10:31:29.064Z,38
2019-05-11T10:41:29.006Z,39
2019-05-11T10:51:29.494Z,39
2019-05-11T11:01:30.348Z,38
2019-05-11T11:11:29.652Z,37
2019-05-11T11:21:30.777Z,37
2019-05-11T11:31:30.502Z,38
2019-05-11T11:41:29.768Z,38
2019-05-11T11:51:29.772Z,38
2019-05-11T12:01:29.970Z,37
2019-05-11T12:11:29.836Z,37
2019-05-11T12:21:28.907Z,38
2019-05-11T12:31:34.277Z,37
2019-05-11T12:41:38.796Z,37
2019-05-11T12:51:29.952Z,37
2019-05-11T13:01:28.814Z,37
2019-05-11T13:11:29.938Z,37
2019-05-11T13:21:30.512Z,36
2019-05-11T13:31:29.715Z,36
2019-05-11T13:41:29.783Z,37
2019-05-11T13:51:29.809Z,37
2019-05-11T14:01:29.684Z,37
2019-05-11T14:11:29.865Z,37
2019-05-11T14:21:29.303Z,37
2019-05-11T14:31:30.202Z,36
2019-05-11T14:41:29.217Z,36
2019-05-11T14:51:30.059Z,36
2019-05-11T15:01:29.317Z,37
2019-05-11T15:11:29.849Z,36
2019-05-11T15:21:29.283Z,36
2019-05-11T15:31:29.653Z,36
2019-05-11T15:41:29.850Z,36
2019-05-11T15:51:30.277Z,36
2019-05-11T16:01:30.802Z,36
2019-05-11T16:11:30.255Z,36
2019-05-11T16:21:30.327Z,36
2019-05-11T16:31:29.204Z,36
2019-05-11T16:41:29.845Z,36
2019-05-11T16:51:30.262Z,36
2019-05-11T17:01:26.866Z,37
2019-05-11T17:11:30.200Z,36
2019-05-11T17:21:31.308Z,36
2019-05-11T17:31:27.757Z,37
2019-05-11T17:41:29.851Z,36
2019-05-11T17:51:29.761Z,36
2019-05-11T18:01:28.855Z,38
2019-05-11T18:11:31.816Z,37
2019-05-11T18:21:30.059Z,37
2019-05-11T18:31:29.126Z,37
2019-05-11T18:41:29.004Z,38
2019-05-11T18:51:27.133Z,38
2019-05-11T19:01:29.725Z,38
2019-05-11T19:11:30.149Z,37
2019-05-11T19:21:29.202Z,37
2019-05-11T19:31:29.958Z,37
2019-05-11T19:41:29.735Z,37
2019-05-11T19:51:30.927Z,37
2019-05-11T20:01:29.257Z,37
2019-05-11T20:11:29.945Z,38
2019-05-11T20:21:30.145Z,37
2019-05-11T20:31:29.605Z,38
2019-05-11T20:41:29.777Z,38
2019-05-11T20:51:38.577Z,39
2019-05-11T21:01:30.603Z,39
2019-05-11T21:11:29.148Z,38
2019-05-11T21:21:52.733Z,38
2019-05-11T21:31:31.039Z,38
2019-05-11T21:41:32.622Z,38
2019-05-11T21:51:30.984Z,38
2019-05-11T22:01:29.974Z,38
2019-05-11T22:11:30.296Z,38
2019-05-11T22:21:29.962Z,39
2019-05-11T22:31:30.055Z,38
2019-05-11T22:41:27.039Z,39
2019-05-11T22:51:29.954Z,39
2019-05-11T23:01:30.143Z,38
2019-05-11T23:11:29.038Z,39
2019-05-11T23:21:31.917Z,39
2019-05-11T23:31:29.766Z,38
2019-05-11T23:41:30.707Z,38
2019-05-11T23:51:29.713Z,39
